Terminal Aerodrome Forecast
Issued by NWS

Home | Current Version | Previous Version | Text Only | Print | Product List | Glossary On
Versions: 1 2 3 4 5 6 7 8 9 10 11 12 13 14 15
618
FTAK31 PAJN 300540
TAFAKT
TAF
PAKT 300540Z 3006/0106 32007KT P6SM VCSH OVC040
     FM301200 31006KT P6SM BKN040 OVC070
     FM301800 30007KT P6SM OVC050
     FM302100 VRB04KT P6SM VCSH SCT025 OVC050
     FM010100 12007KT P6SM -SHRA SCT025 OVC050
      AMD LTD TO CLD VIS AND WIND 3006/3015=

USA.gov is the U.S. government's official web portal to all federal, state and local government web resources and services.